Impacts TAF Board INFO
FOR SITUATIONAL AWARENESS. NOT TO BE USED FOR FLIGHT PLANNING PURPOSES.
IDs:

KTLH - Tallahassee Intl, FL, US

Issued at 1123 UTC 20 May 2018
Updated at 1528 UTC 20 May 2018
Potential Impact None Slight Moderate High
Time1453Z 20/16Z 20/17Z 20/18Z 20/19Z 20/20Z 20/21Z 20/22Z 20/23Z 21/00Z 21/01Z 21/02Z 21/03Z 21/04Z>>
Type OBS PRVL
  [TEMP]  
PRVL
  [TEMP]  
PRVL
  [TEMP]  
PRVL PRVL PRVL PRVL PRVL PRVL PRVL PRVL PRVL PRVL
VIS 10 6
  [3]  
6
  [3]  
6
  [3]  
6 6 6 6 6 6 6 6 6 6
CIG 13 40
  [25]  
40
  [25]  
40
  [25]  
40 40 40 40 40 40 40 40 40 40
Cover OVC OVC
  [OVC]  
OVC
  [OVC]  
OVC
  [OVC]  
OVC OVC OVC OVC OVC OVC OVC OVC OVC OVC
FltCat MVFR VFR
  [MVFR]  
VFR
  [MVFR]  
VFR
  [MVFR]  
VFR VFR VFR VFR VFR VFR VFR VFR VFR VFR
WX -- SHRA
  [TSRA]  
SHRA
  [TSRA]  
SHRA
  [TSRA]  
SHRA SHRA SHRA SHRA SHRA SHRA SHRA SHRA SHRA SHRA
WDir 90 100
[100]
100
[100]
100
[100]
100 100 100 100 100 100 100 100 100 100
WSpd 6 5
  [5]  
5
  [5]  
5
  [5]  
5 5 5 5 5 5 5 5 5 5
WGst -- --
  [--]  
--
  [--]  
--
  [--]  
-- -- -- -- -- -- -- -- -- --

Raw TAF
KTLH 201123Z 2012/2112 10003KT P6SM SCT017
  FM201500 10005KT 6SM SHRA SCT025 OVC040
  TEMPO 2015/2019 3SM TSRA OVC025CB


Raw METAR
KTLH 201453Z 09006KT 10SM BKN013 BKN075 OVC250 24/21 A3013 RMK AO2 SLP200 T02440206 51012
KTLH 201409Z 07005KT 10SM BKN013 BKN019 OVC250 24/21 A3012 RMK AO2 T02390206
KTLH 201353Z 09004KT 10SM SCT015 BKN075 OVC250 24/21 A3012 RMK AO2 SLP197 T02390206
KTLH 201253Z 11006KT 10SM FEW019 BKN150 OVC250 23/21 A3010 RMK AO2 SLP193 TCU DSNT S T02280206

METAR Board
Radar Display
Forecast Discussion

FOR SITUATIONAL AWARENESS. NOT TO BE USED FOR FLIGHT PLANNING PURPOSES.